sensor_id;sensor_type;location;lat;lon;timestamp;P1;durP1;ratioP1;P2;durP2;ratioP2
47167;SDS011;32931;47.778;17.806;2023-01-25T00:01:59;82.43;;;42.50;;
47167;SDS011;32931;47.778;17.806;2023-01-25T00:04:26;87.82;;;43.05;;
47167;SDS011;32931;47.778;17.806;2023-01-25T00:06:53;85.38;;;42.33;;
47167;SDS011;32931;47.778;17.806;2023-01-25T00:09:19;85.88;;;42.40;;
47167;SDS011;32931;47.778;17.806;2023-01-25T00:11:48;79.78;;;40.17;;
47167;SDS011;32931;47.778;17.806;2023-01-25T00:14:14;87.32;;;42.70;;
47167;SDS011;32931;47.778;17.806;2023-01-25T00:16:41;85.75;;;42.10;;
47167;SDS011;32931;47.778;17.806;2023-01-25T00:19:08;89.45;;;44.17;;
47167;SDS011;32931;47.778;17.806;2023-01-25T00:21:34;85.35;;;43.17;;
47167;SDS011;32931;47.778;17.806;2023-01-25T00:24:01;84.43;;;40.83;;
47167;SDS011;32931;47.778;17.806;2023-01-25T00:26:28;79.32;;;42.20;;
47167;SDS011;32931;47.778;17.806;2023-01-25T00:28:56;88.43;;;42.83;;
47167;SDS011;32931;47.778;17.806;2023-01-25T00:36:57;81.65;;;40.33;;
47167;SDS011;32931;47.778;17.806;2023-01-25T00:39:29;78.82;;;41.53;;
47167;SDS011;32931;47.778;17.806;2023-01-25T00:41:55;79.03;;;39.55;;
47167;SDS011;32931;47.778;17.806;2023-01-25T00:44:21;80.63;;;39.95;;
47167;SDS011;32931;47.778;17.806;2023-01-25T00:46:47;85.78;;;39.72;;
47167;SDS011;32931;47.778;17.806;2023-01-25T00:49:23;76.75;;;39.22;;
47167;SDS011;32931;47.778;17.806;2023-01-25T00:51:52;79.00;;;41.20;;
47167;SDS011;32931;47.778;17.806;2023-01-25T00:54:19;81.30;;;40.55;;
47167;SDS011;32931;47.778;17.806;2023-01-25T00:56:47;74.50;;;38.90;;
47167;SDS011;32931;47.778;17.806;2023-01-25T00:59:14;81.53;;;40.90;;
47167;SDS011;32931;47.778;17.806;2023-01-25T01:01:40;81.47;;;39.85;;
47167;SDS011;32931;47.778;17.806;2023-01-25T01:04:06;84.10;;;40.78;;
47167;SDS011;32931;47.778;17.806;2023-01-25T01:06:36;76.95;;;40.03;;
47167;SDS011;32931;47.778;17.806;2023-01-25T01:09:04;82.97;;;41.40;;
47167;SDS011;32931;47.778;17.806;2023-01-25T01:11:32;87.25;;;39.38;;
47167;SDS011;32931;47.778;17.806;2023-01-25T01:13:58;78.90;;;41.38;;
47167;SDS011;32931;47.778;17.806;2023-01-25T01:16:25;87.53;;;41.90;;
47167;SDS011;32931;47.778;17.806;2023-01-25T01:18:51;86.38;;;41.80;;
47167;SDS011;32931;47.778;17.806;2023-01-25T01:21:18;78.97;;;39.80;;
47167;SDS011;32931;47.778;17.806;2023-01-25T01:23:45;83.07;;;41.80;;
47167;SDS011;32931;47.778;17.806;2023-01-25T01:26:12;80.03;;;39.75;;
47167;SDS011;32931;47.778;17.806;2023-01-25T01:28:40;94.13;;;42.60;;
47167;SDS011;32931;47.778;17.806;2023-01-25T01:31:09;84.13;;;40.72;;
47167;SDS011;32931;47.778;17.806;2023-01-25T01:33:40;76.55;;;39.40;;
47167;SDS011;32931;47.778;17.806;2023-01-25T01:36:10;91.97;;;42.90;;
47167;SDS011;32931;47.778;17.806;2023-01-25T01:38:38;88.55;;;40.80;;
47167;SDS011;32931;47.778;17.806;2023-01-25T01:41:05;73.93;;;39.00;;
47167;SDS011;32931;47.778;17.806;2023-01-25T01:43:31;88.15;;;43.28;;
47167;SDS011;32931;47.778;17.806;2023-01-25T01:45:59;81.40;;;39.92;;
47167;SDS011;32931;47.778;17.806;2023-01-25T01:54:15;82.28;;;40.85;;
47167;SDS011;32931;47.778;17.806;2023-01-25T01:56:54;73.00;;;38.58;;
47167;SDS011;32931;47.778;17.806;2023-01-25T01:59:26;88.07;;;41.13;;
47167;SDS011;32931;47.778;17.806;2023-01-25T02:01:56;87.57;;;41.20;;
47167;SDS011;32931;47.778;17.806;2023-01-25T02:04:22;78.28;;;39.75;;
47167;SDS011;32931;47.778;17.806;2023-01-25T02:09:39;77.95;;;39.58;;
47167;SDS011;32931;47.778;17.806;2023-01-25T02:12:06;86.35;;;41.05;;
47167;SDS011;32931;47.778;17.806;2023-01-25T02:14:33;86.57;;;42.30;;
47167;SDS011;32931;47.778;17.806;2023-01-25T02:17:02;85.13;;;40.78;;
47167;SDS011;32931;47.778;17.806;2023-01-25T02:22:12;90.63;;;43.00;;
47167;SDS011;32931;47.778;17.806;2023-01-25T02:24:46;86.47;;;42.88;;
47167;SDS011;32931;47.778;17.806;2023-01-25T02:27:23;84.05;;;41.55;;
47167;SDS011;32931;47.778;17.806;2023-01-25T02:29:49;91.53;;;42.50;;
47167;SDS011;32931;47.778;17.806;2023-01-25T02:32:16;88.97;;;41.87;;
47167;SDS011;32931;47.778;17.806;2023-01-25T02:34:42;103.63;;;43.97;;
47167;SDS011;32931;47.778;17.806;2023-01-25T02:37:11;90.78;;;43.00;;
47167;SDS011;32931;47.778;17.806;2023-01-25T02:39:39;87.00;;;42.28;;
47167;SDS011;32931;47.778;17.806;2023-01-25T02:42:06;77.95;;;39.63;;
47167;SDS011;32931;47.778;17.806;2023-01-25T02:44:32;86.65;;;41.20;;
47167;SDS011;32931;47.778;17.806;2023-01-25T02:46:59;88.05;;;41.78;;
47167;SDS011;32931;47.778;17.806;2023-01-25T02:49:25;90.72;;;41.97;;
47167;SDS011;32931;47.778;17.806;2023-01-25T02:51:52;88.47;;;40.58;;
47167;SDS011;32931;47.778;17.806;2023-01-25T02:54:23;87.38;;;41.22;;
47167;SDS011;32931;47.778;17.806;2023-01-25T02:56:52;88.47;;;40.55;;
47167;SDS011;32931;47.778;17.806;2023-01-25T02:59:19;84.80;;;39.60;;
47167;SDS011;32931;47.778;17.806;2023-01-25T03:01:45;84.57;;;40.17;;
47167;SDS011;32931;47.778;17.806;2023-01-25T03:04:11;83.30;;;40.40;;
47167;SDS011;32931;47.778;17.806;2023-01-25T03:06:38;82.00;;;39.35;;
47167;SDS011;32931;47.778;17.806;2023-01-25T03:09:07;75.35;;;37.17;;
47167;SDS011;32931;47.778;17.806;2023-01-25T03:11:34;74.18;;;38.78;;
47167;SDS011;32931;47.778;17.806;2023-01-25T03:14:01;73.95;;;37.70;;
47167;SDS011;32931;47.778;17.806;2023-01-25T03:16:29;75.40;;;37.40;;
47167;SDS011;32931;47.778;17.806;2023-01-25T03:18:56;74.68;;;37.90;;
47167;SDS011;32931;47.778;17.806;2023-01-25T03:21:22;78.78;;;39.17;;
47167;SDS011;32931;47.778;17.806;2023-01-25T03:23:53;76.93;;;37.70;;
47167;SDS011;32931;47.778;17.806;2023-01-25T03:26:21;70.43;;;35.57;;
47167;SDS011;32931;47.778;17.806;2023-01-25T03:28:49;72.43;;;37.97;;
47167;SDS011;32931;47.778;17.806;2023-01-25T03:31:16;73.03;;;36.00;;
47167;SDS011;32931;47.778;17.806;2023-01-25T03:33:42;76.97;;;38.92;;
47167;SDS011;32931;47.778;17.806;2023-01-25T03:36:09;71.88;;;38.13;;
47167;SDS011;32931;47.778;17.806;2023-01-25T03:38:35;76.28;;;36.47;;
47167;SDS011;32931;47.778;17.806;2023-01-25T03:41:02;73.20;;;36.72;;
47167;SDS011;32931;47.778;17.806;2023-01-25T03:43:28;69.63;;;37.65;;
47167;SDS011;32931;47.778;17.806;2023-01-25T03:45:56;67.82;;;35.47;;
47167;SDS011;32931;47.778;17.806;2023-01-25T03:48:23;71.03;;;35.70;;
47167;SDS011;32931;47.778;17.806;2023-01-25T03:50:51;70.63;;;36.58;;
47167;SDS011;32931;47.778;17.806;2023-01-25T03:53:19;73.22;;;35.65;;
47167;SDS011;32931;47.778;17.806;2023-01-25T03:55:59;71.20;;;36.50;;
47167;SDS011;32931;47.778;17.806;2023-01-25T03:58:31;71.78;;;36.55;;
47167;SDS011;32931;47.778;17.806;2023-01-25T04:00:58;71.40;;;37.45;;
47167;SDS011;32931;47.778;17.806;2023-01-25T04:03:25;73.72;;;36.67;;
47167;SDS011;32931;47.778;17.806;2023-01-25T04:05:52;70.05;;;35.63;;
47167;SDS011;32931;47.778;17.806;2023-01-25T04:08:19;71.10;;;37.00;;
47167;SDS011;32931;47.778;17.806;2023-01-25T04:13:22;72.15;;;37.78;;
47167;SDS011;32931;47.778;17.806;2023-01-25T04:15:49;70.85;;;37.35;;
47167;SDS011;32931;47.778;17.806;2023-01-25T04:18:15;73.70;;;36.65;;
47167;SDS011;32931;47.778;17.806;2023-01-25T04:20:42;79.57;;;40.13;;
47167;SDS011;32931;47.778;17.806;2023-01-25T04:23:09;80.25;;;40.17;;
47167;SDS011;32931;47.778;17.806;2023-01-25T04:25:36;77.97;;;38.38;;
47167;SDS011;32931;47.778;17.806;2023-01-25T04:28:02;81.43;;;39.47;;
47167;SDS011;32931;47.778;17.806;2023-01-25T04:30:29;72.63;;;36.08;;
47167;SDS011;32931;47.778;17.806;2023-01-25T04:32:55;75.13;;;35.58;;
47167;SDS011;32931;47.778;17.806;2023-01-25T04:35:21;89.25;;;44.65;;
47167;SDS011;32931;47.778;17.806;2023-01-25T04:37:54;86.70;;;41.17;;
47167;SDS011;32931;47.778;17.806;2023-01-25T04:40:21;76.95;;;39.90;;
47167;SDS011;32931;47.778;17.806;2023-01-25T04:42:47;75.07;;;38.92;;
47167;SDS011;32931;47.778;17.806;2023-01-25T04:45:13;83.22;;;39.50;;
47167;SDS011;32931;47.778;17.806;2023-01-25T04:47:39;73.55;;;38.55;;
47167;SDS011;32931;47.778;17.806;2023-01-25T04:50:06;76.93;;;38.05;;
47167;SDS011;32931;47.778;17.806;2023-01-25T04:52:32;70.70;;;36.47;;
47167;SDS011;32931;47.778;17.806;2023-01-25T04:54:58;70.40;;;36.17;;
47167;SDS011;32931;47.778;17.806;2023-01-25T04:57:24;70.43;;;37.28;;
47167;SDS011;32931;47.778;17.806;2023-01-25T04:59:50;78.57;;;36.83;;
47167;SDS011;32931;47.778;17.806;2023-01-25T05:02:17;70.15;;;37.17;;
47167;SDS011;32931;47.778;17.806;2023-01-25T05:04:43;75.15;;;35.95;;
47167;SDS011;32931;47.778;17.806;2023-01-25T05:07:09;69.18;;;34.80;;
47167;SDS011;32931;47.778;17.806;2023-01-25T05:09:35;67.50;;;34.92;;
47167;SDS011;32931;47.778;17.806;2023-01-25T05:12:01;66.03;;;34.42;;
47167;SDS011;32931;47.778;17.806;2023-01-25T05:14:28;69.00;;;35.25;;
47167;SDS011;32931;47.778;17.806;2023-01-25T05:16:54;67.13;;;34.08;;
47167;SDS011;32931;47.778;17.806;2023-01-25T05:19:20;66.50;;;34.97;;
47167;SDS011;32931;47.778;17.806;2023-01-25T05:21:46;66.50;;;34.85;;
47167;SDS011;32931;47.778;17.806;2023-01-25T05:24:25;65.55;;;34.50;;
47167;SDS011;32931;47.778;17.806;2023-01-25T05:26:52;69.82;;;35.30;;
47167;SDS011;32931;47.778;17.806;2023-01-25T05:29:31;64.97;;;34.90;;
47167;SDS011;32931;47.778;17.806;2023-01-25T05:32:22;67.05;;;34.17;;
47167;SDS011;32931;47.778;17.806;2023-01-25T05:34:48;66.93;;;34.55;;
47167;SDS011;32931;47.778;17.806;2023-01-25T05:37:15;73.28;;;36.55;;
47167;SDS011;32931;47.778;17.806;2023-01-25T05:39:43;67.03;;;34.35;;
47167;SDS011;32931;47.778;17.806;2023-01-25T05:42:09;69.93;;;35.75;;
47167;SDS011;32931;47.778;17.806;2023-01-25T05:44:37;69.68;;;36.13;;
47167;SDS011;32931;47.778;17.806;2023-01-25T05:47:03;72.38;;;36.10;;
47167;SDS011;32931;47.778;17.806;2023-01-25T05:49:30;68.28;;;34.78;;
47167;SDS011;32931;47.778;17.806;2023-01-25T05:51:56;64.95;;;34.65;;
47167;SDS011;32931;47.778;17.806;2023-01-25T05:54:22;69.63;;;37.55;;
47167;SDS011;32931;47.778;17.806;2023-01-25T05:56:49;75.00;;;38.55;;
47167;SDS011;32931;47.778;17.806;2023-01-25T05:59:15;74.10;;;38.00;;
47167;SDS011;32931;47.778;17.806;2023-01-25T06:01:42;73.60;;;36.15;;
47167;SDS011;32931;47.778;17.806;2023-01-25T06:04:09;72.28;;;35.97;;
47167;SDS011;32931;47.778;17.806;2023-01-25T06:06:39;77.88;;;36.88;;
47167;SDS011;32931;47.778;17.806;2023-01-25T06:09:05;68.68;;;35.95;;
47167;SDS011;32931;47.778;17.806;2023-01-25T06:11:31;68.95;;;36.75;;
47167;SDS011;32931;47.778;17.806;2023-01-25T06:13:58;72.20;;;35.80;;
47167;SDS011;32931;47.778;17.806;2023-01-25T06:16:24;68.15;;;37.65;;
47167;SDS011;32931;47.778;17.806;2023-01-25T06:18:51;72.03;;;37.45;;
47167;SDS011;32931;47.778;17.806;2023-01-25T06:21:18;72.82;;;37.42;;
47167;SDS011;32931;47.778;17.806;2023-01-25T06:23:44;71.55;;;38.10;;
47167;SDS011;32931;47.778;17.806;2023-01-25T06:26:12;72.65;;;37.10;;
47167;SDS011;32931;47.778;17.806;2023-01-25T06:28:39;68.63;;;36.15;;
47167;SDS011;32931;47.778;17.806;2023-01-25T06:31:07;70.43;;;37.45;;
47167;SDS011;32931;47.778;17.806;2023-01-25T06:33:35;72.70;;;37.47;;
47167;SDS011;32931;47.778;17.806;2023-01-25T06:36:02;73.65;;;37.67;;
47167;SDS011;32931;47.778;17.806;2023-01-25T06:38:31;69.75;;;36.33;;
47167;SDS011;32931;47.778;17.806;2023-01-25T06:40:58;65.53;;;35.63;;
47167;SDS011;32931;47.778;17.806;2023-01-25T06:43:29;68.22;;;37.08;;
47167;SDS011;32931;47.778;17.806;2023-01-25T06:45:56;66.93;;;35.38;;
47167;SDS011;32931;47.778;17.806;2023-01-25T06:48:27;72.07;;;36.65;;
47167;SDS011;32931;47.778;17.806;2023-01-25T06:51:01;70.53;;;37.70;;
47167;SDS011;32931;47.778;17.806;2023-01-25T06:53:31;69.03;;;39.97;;
47167;SDS011;32931;47.778;17.806;2023-01-25T06:56:06;77.55;;;41.67;;
47167;SDS011;32931;47.778;17.806;2023-01-25T06:58:34;78.55;;;42.63;;
47167;SDS011;32931;47.778;17.806;2023-01-25T07:01:04;82.78;;;44.58;;
47167;SDS011;32931;47.778;17.806;2023-01-25T07:03:33;78.68;;;42.05;;
47167;SDS011;32931;47.778;17.806;2023-01-25T07:06:00;72.90;;;40.15;;
47167;SDS011;32931;47.778;17.806;2023-01-25T07:08:28;75.82;;;39.58;;
47167;SDS011;32931;47.778;17.806;2023-01-25T07:10:55;76.78;;;39.80;;
47167;SDS011;32931;47.778;17.806;2023-01-25T07:13:23;78.45;;;41.83;;
47167;SDS011;32931;47.778;17.806;2023-01-25T07:15:51;87.63;;;42.70;;
47167;SDS011;32931;47.778;17.806;2023-01-25T07:18:21;82.72;;;41.97;;
47167;SDS011;32931;47.778;17.806;2023-01-25T07:20:48;85.75;;;42.95;;
47167;SDS011;32931;47.778;17.806;2023-01-25T07:23:15;76.38;;;40.28;;
47167;SDS011;32931;47.778;17.806;2023-01-25T07:25:47;92.07;;;47.08;;
47167;SDS011;32931;47.778;17.806;2023-01-25T07:28:15;90.82;;;46.63;;
47167;SDS011;32931;47.778;17.806;2023-01-25T07:30:42;88.78;;;46.47;;
47167;SDS011;32931;47.778;17.806;2023-01-25T07:33:09;89.63;;;45.35;;
47167;SDS011;32931;47.778;17.806;2023-01-25T07:35:36;84.38;;;44.65;;
47167;SDS011;32931;47.778;17.806;2023-01-25T07:38:02;93.95;;;45.00;;
47167;SDS011;32931;47.778;17.806;2023-01-25T07:40:29;80.50;;;42.30;;
47167;SDS011;32931;47.778;17.806;2023-01-25T07:42:55;93.65;;;45.80;;
47167;SDS011;32931;47.778;17.806;2023-01-25T07:45:21;89.03;;;45.20;;
47167;SDS011;32931;47.778;17.806;2023-01-25T07:47:55;91.32;;;45.35;;
47167;SDS011;32931;47.778;17.806;2023-01-25T07:50:22;103.57;;;45.97;;
47167;SDS011;32931;47.778;17.806;2023-01-25T07:52:48;95.90;;;45.55;;
47167;SDS011;32931;47.778;17.806;2023-01-25T07:55:14;116.30;;;49.38;;
47167;SDS011;32931;47.778;17.806;2023-01-25T07:57:40;104.05;;;53.55;;
47167;SDS011;32931;47.778;17.806;2023-01-25T08:00:07;104.55;;;52.92;;
47167;SDS011;32931;47.778;17.806;2023-01-25T08:02:34;109.13;;;51.25;;
47167;SDS011;32931;47.778;17.806;2023-01-25T08:05:00;106.40;;;50.58;;
47167;SDS011;32931;47.778;17.806;2023-01-25T08:07:27;101.70;;;50.03;;
47167;SDS011;32931;47.778;17.806;2023-01-25T08:09:53;102.35;;;47.70;;
47167;SDS011;32931;47.778;17.806;2023-01-25T08:12:20;95.03;;;45.13;;
47167;SDS011;32931;47.778;17.806;2023-01-25T08:14:47;124.97;;;65.50;;
47167;SDS011;32931;47.778;17.806;2023-01-25T08:17:15;96.32;;;48.28;;
47167;SDS011;32931;47.778;17.806;2023-01-25T08:19:41;101.82;;;48.88;;
47167;SDS011;32931;47.778;17.806;2023-01-25T08:22:07;98.13;;;47.38;;
47167;SDS011;32931;47.778;17.806;2023-01-25T08:24:33;87.43;;;42.72;;
47167;SDS011;32931;47.778;17.806;2023-01-25T08:26:59;96.47;;;39.63;;
47167;SDS011;32931;47.778;17.806;2023-01-25T08:29:26;98.50;;;39.17;;
47167;SDS011;32931;47.778;17.806;2023-01-25T08:31:52;89.75;;;41.35;;
47167;SDS011;32931;47.778;17.806;2023-01-25T08:34:18;96.38;;;40.67;;
47167;SDS011;32931;47.778;17.806;2023-01-25T08:36:45;89.45;;;42.55;;
47167;SDS011;32931;47.778;17.806;2023-01-25T08:39:11;86.47;;;44.15;;
47167;SDS011;32931;47.778;17.806;2023-01-25T08:41:38;87.93;;;43.65;;
47167;SDS011;32931;47.778;17.806;2023-01-25T08:44:04;88.28;;;43.05;;
47167;SDS011;32931;47.778;17.806;2023-01-25T08:46:31;90.75;;;42.38;;
47167;SDS011;32931;47.778;17.806;2023-01-25T08:48:59;91.65;;;44.95;;
47167;SDS011;32931;47.778;17.806;2023-01-25T08:51:26;88.70;;;42.67;;
47167;SDS011;32931;47.778;17.806;2023-01-25T08:53:53;99.72;;;46.30;;
47167;SDS011;32931;47.778;17.806;2023-01-25T08:56:19;98.80;;;43.33;;
47167;SDS011;32931;47.778;17.806;2023-01-25T08:58:46;85.40;;;43.55;;
47167;SDS011;32931;47.778;17.806;2023-01-25T09:01:14;92.20;;;43.33;;
47167;SDS011;32931;47.778;17.806;2023-01-25T09:03:43;83.93;;;42.50;;
47167;SDS011;32931;47.778;17.806;2023-01-25T09:06:11;113.03;;;43.38;;
47167;SDS011;32931;47.778;17.806;2023-01-25T09:08:37;93.57;;;41.97;;
47167;SDS011;32931;47.778;17.806;2023-01-25T09:11:05;101.47;;;42.63;;
47167;SDS011;32931;47.778;17.806;2023-01-25T09:13:35;94.93;;;41.25;;
47167;SDS011;32931;47.778;17.806;2023-01-25T09:16:05;99.18;;;42.33;;
47167;SDS011;32931;47.778;17.806;2023-01-25T09:18:35;115.00;;;43.20;;
47167;SDS011;32931;47.778;17.806;2023-01-25T09:21:09;95.07;;;41.97;;
47167;SDS011;32931;47.778;17.806;2023-01-25T09:23:37;93.15;;;42.17;;
47167;SDS011;32931;47.778;17.806;2023-01-25T09:26:04;139.55;;;41.42;;
47167;SDS011;32931;47.778;17.806;2023-01-25T09:28:31;139.38;;;40.20;;
47167;SDS011;32931;47.778;17.806;2023-01-25T09:30:59;86.30;;;42.13;;
47167;SDS011;32931;47.778;17.806;2023-01-25T09:33:28;105.50;;;41.92;;
47167;SDS011;32931;47.778;17.806;2023-01-25T09:35:56;92.45;;;43.58;;
47167;SDS011;32931;47.778;17.806;2023-01-25T09:38:22;89.40;;;42.55;;
47167;SDS011;32931;47.778;17.806;2023-01-25T09:41:05;99.68;;;44.55;;
47167;SDS011;32931;47.778;17.806;2023-01-25T09:46:50;93.65;;;43.35;;
47167;SDS011;32931;47.778;17.806;2023-01-25T09:52:24;90.78;;;45.95;;
47167;SDS011;32931;47.778;17.806;2023-01-25T09:54:51;94.13;;;45.08;;
47167;SDS011;32931;47.778;17.806;2023-01-25T09:57:20;90.65;;;45.70;;
47167;SDS011;32931;47.778;17.806;2023-01-25T09:59:52;88.40;;;44.97;;
47167;SDS011;32931;47.778;17.806;2023-01-25T10:02:32;90.93;;;47.22;;
47167;SDS011;32931;47.778;17.806;2023-01-25T10:05:20;88.93;;;43.83;;
47167;SDS011;32931;47.778;17.806;2023-01-25T10:07:51;103.60;;;45.50;;
47167;SDS011;32931;47.778;17.806;2023-01-25T10:10:44;78.95;;;43.00;;
47167;SDS011;32931;47.778;17.806;2023-01-25T10:13:14;104.95;;;43.58;;
47167;SDS011;32931;47.778;17.806;2023-01-25T10:15:46;97.50;;;44.10;;
47167;SDS011;32931;47.778;17.806;2023-01-25T10:18:25;288.73;;;46.20;;
47167;SDS011;32931;47.778;17.806;2023-01-25T10:20:57;198.65;;;44.83;;
47167;SDS011;32931;47.778;17.806;2023-01-25T10:26:47;135.25;;;38.83;;
47167;SDS011;32931;47.778;17.806;2023-01-25T10:29:11;121.10;;;37.83;;
47167;SDS011;32931;47.778;17.806;2023-01-25T10:34:20;137.07;;;38.65;;
47167;SDS011;32931;47.778;17.806;2023-01-25T10:36:53;171.95;;;39.25;;
47167;SDS011;32931;47.778;17.806;2023-01-25T10:39:21;153.85;;;38.78;;
47167;SDS011;32931;47.778;17.806;2023-01-25T10:44:25;184.10;;;38.65;;
47167;SDS011;32931;47.778;17.806;2023-01-25T10:47:35;103.68;;;40.38;;
47167;SDS011;32931;47.778;17.806;2023-01-25T10:49:49;156.52;;;39.13;;
47167;SDS011;32931;47.778;17.806;2023-01-25T10:52:20;224.68;;;42.83;;
47167;SDS011;32931;47.778;17.806;2023-01-25T11:03:02;152.95;;;44.03;;
47167;SDS011;32931;47.778;17.806;2023-01-25T11:05:32;158.38;;;46.17;;
47167;SDS011;32931;47.778;17.806;2023-01-25T11:10:48;144.13;;;44.58;;
47167;SDS011;32931;47.778;17.806;2023-01-25T11:15:42;110.93;;;43.83;;
47167;SDS011;32931;47.778;17.806;2023-01-25T11:23:36;107.18;;;45.97;;
47167;SDS011;32931;47.778;17.806;2023-01-25T11:28:37;88.95;;;41.30;;
47167;SDS011;32931;47.778;17.806;2023-01-25T11:31:04;130.57;;;40.80;;
47167;SDS011;32931;47.778;17.806;2023-01-25T11:33:35;87.68;;;39.13;;
47167;SDS011;32931;47.778;17.806;2023-01-25T11:36:08;101.75;;;38.97;;
47167;SDS011;32931;47.778;17.806;2023-01-25T11:39:12;94.88;;;35.30;;
47167;SDS011;32931;47.778;17.806;2023-01-25T11:44:43;48.17;;;29.88;;
47167;SDS011;32931;47.778;17.806;2023-01-25T11:53:02;59.50;;;32.30;;
47167;SDS011;32931;47.778;17.806;2023-01-25T11:58:34;75.30;;;31.60;;
47167;SDS011;32931;47.778;17.806;2023-01-25T12:29:23;56.63;;;28.00;;
47167;SDS011;32931;47.778;17.806;2023-01-25T12:31:57;42.78;;;26.15;;
47167;SDS011;32931;47.778;17.806;2023-01-25T12:37:02;43.75;;;26.10;;
47167;SDS011;32931;47.778;17.806;2023-01-25T12:39:59;44.47;;;27.73;;
47167;SDS011;32931;47.778;17.806;2023-01-25T12:42:38;41.97;;;26.27;;
47167;SDS011;32931;47.778;17.806;2023-01-25T12:45:14;44.83;;;26.55;;
47167;SDS011;32931;47.778;17.806;2023-01-25T12:47:54;53.78;;;27.67;;
47167;SDS011;32931;47.778;17.806;2023-01-25T12:55:37;59.88;;;29.85;;
47167;SDS011;32931;47.778;17.806;2023-01-25T13:09:17;63.50;;;33.88;;
47167;SDS011;32931;47.778;17.806;2023-01-25T13:12:04;57.03;;;32.30;;
47167;SDS011;32931;47.778;17.806;2023-01-25T13:14:34;67.68;;;34.15;;
47167;SDS011;32931;47.778;17.806;2023-01-25T13:19:57;58.63;;;34.72;;
47167;SDS011;32931;47.778;17.806;2023-01-25T13:27:44;65.30;;;34.28;;
47167;SDS011;32931;47.778;17.806;2023-01-25T13:35:27;65.43;;;34.95;;
47167;SDS011;32931;47.778;17.806;2023-01-25T13:43:02;56.60;;;34.58;;
47167;SDS011;32931;47.778;17.806;2023-01-25T13:45:32;50.33;;;32.03;;
47167;SDS011;32931;47.778;17.806;2023-01-25T13:50:36;50.67;;;30.33;;
47167;SDS011;32931;47.778;17.806;2023-01-25T13:53:23;48.55;;;30.75;;
47167;SDS011;32931;47.778;17.806;2023-01-25T13:55:54;53.30;;;31.55;;
47167;SDS011;32931;47.778;17.806;2023-01-25T13:58:23;47.47;;;30.30;;
47167;SDS011;32931;47.778;17.806;2023-01-25T14:01:01;52.80;;;30.92;;
47167;SDS011;32931;47.778;17.806;2023-01-25T14:06:08;53.28;;;32.15;;
47167;SDS011;32931;47.778;17.806;2023-01-25T14:08:52;52.53;;;30.75;;
47167;SDS011;32931;47.778;17.806;2023-01-25T14:11:24;53.42;;;31.88;;
47167;SDS011;32931;47.778;17.806;2023-01-25T14:16:26;68.82;;;40.03;;
47167;SDS011;32931;47.778;17.806;2023-01-25T14:18:55;60.70;;;34.15;;
47167;SDS011;32931;47.778;17.806;2023-01-25T14:21:41;57.95;;;35.05;;
47167;SDS011;32931;47.778;17.806;2023-01-25T14:24:08;59.97;;;36.35;;
47167;SDS011;32931;47.778;17.806;2023-01-25T14:26:36;58.50;;;34.58;;
47167;SDS011;32931;47.778;17.806;2023-01-25T14:29:11;62.72;;;35.38;;
47167;SDS011;32931;47.778;17.806;2023-01-25T14:31:45;62.33;;;35.70;;
47167;SDS011;32931;47.778;17.806;2023-01-25T14:34:16;64.20;;;37.03;;
47167;SDS011;32931;47.778;17.806;2023-01-25T14:36:44;69.57;;;38.25;;
47167;SDS011;32931;47.778;17.806;2023-01-25T14:39:24;66.65;;;39.05;;
47167;SDS011;32931;47.778;17.806;2023-01-25T14:41:53;71.20;;;41.90;;
47167;SDS011;32931;47.778;17.806;2023-01-25T14:44:21;66.40;;;37.97;;
47167;SDS011;32931;47.778;17.806;2023-01-25T14:46:47;67.32;;;38.58;;
47167;SDS011;32931;47.778;17.806;2023-01-25T14:59:59;67.05;;;39.72;;
47167;SDS011;32931;47.778;17.806;2023-01-25T15:08:11;73.88;;;41.90;;
47167;SDS011;32931;47.778;17.806;2023-01-25T15:11:01;67.07;;;38.20;;
47167;SDS011;32931;47.778;17.806;2023-01-25T15:13:46;67.80;;;38.50;;
47167;SDS011;32931;47.778;17.806;2023-01-25T15:16:13;63.13;;;37.63;;
47167;SDS011;32931;47.778;17.806;2023-01-25T15:18:44;64.35;;;37.00;;
47167;SDS011;32931;47.778;17.806;2023-01-25T15:21:25;75.07;;;44.83;;
47167;SDS011;32931;47.778;17.806;2023-01-25T15:23:54;67.65;;;38.28;;
47167;SDS011;32931;47.778;17.806;2023-01-25T15:26:25;60.28;;;35.60;;
47167;SDS011;32931;47.778;17.806;2023-01-25T15:28:54;64.20;;;37.20;;
47167;SDS011;32931;47.778;17.806;2023-01-25T15:31:23;65.43;;;38.72;;
47167;SDS011;32931;47.778;17.806;2023-01-25T15:33:50;66.32;;;38.50;;
47167;SDS011;32931;47.778;17.806;2023-01-25T15:36:16;65.95;;;38.40;;
47167;SDS011;32931;47.778;17.806;2023-01-25T15:38:43;66.93;;;37.35;;
47167;SDS011;32931;47.778;17.806;2023-01-25T15:41:10;61.22;;;35.88;;
47167;SDS011;32931;47.778;17.806;2023-01-25T15:43:37;60.72;;;36.75;;
47167;SDS011;32931;47.778;17.806;2023-01-25T15:46:03;61.95;;;37.15;;
47167;SDS011;32931;47.778;17.806;2023-01-25T15:48:39;65.93;;;38.50;;
47167;SDS011;32931;47.778;17.806;2023-01-25T15:51:06;63.03;;;38.55;;
47167;SDS011;32931;47.778;17.806;2023-01-25T15:53:32;119.53;;;68.00;;
47167;SDS011;32931;47.778;17.806;2023-01-25T15:56:00;139.38;;;77.72;;
47167;SDS011;32931;47.778;17.806;2023-01-25T15:58:30;76.05;;;43.00;;
47167;SDS011;32931;47.778;17.806;2023-01-25T16:01:03;64.60;;;38.30;;
47167;SDS011;32931;47.778;17.806;2023-01-25T16:03:30;67.65;;;38.13;;
47167;SDS011;32931;47.778;17.806;2023-01-25T16:06:04;79.22;;;45.72;;
47167;SDS011;32931;47.778;17.806;2023-01-25T16:08:44;77.30;;;43.05;;
47167;SDS011;32931;47.778;17.806;2023-01-25T16:11:10;73.70;;;42.97;;
47167;SDS011;32931;47.778;17.806;2023-01-25T16:13:37;82.32;;;47.50;;
47167;SDS011;32931;47.778;17.806;2023-01-25T16:16:14;79.10;;;43.58;;
47167;SDS011;32931;47.778;17.806;2023-01-25T16:18:48;83.28;;;45.22;;
47167;SDS011;32931;47.778;17.806;2023-01-25T16:21:14;127.43;;;76.05;;
47167;SDS011;32931;47.778;17.806;2023-01-25T16:23:41;100.28;;;56.40;;
47167;SDS011;32931;47.778;17.806;2023-01-25T16:26:20;75.70;;;42.55;;
47167;SDS011;32931;47.778;17.806;2023-01-25T16:28:52;84.57;;;47.15;;
47167;SDS011;32931;47.778;17.806;2023-01-25T16:31:18;82.45;;;45.35;;
47167;SDS011;32931;47.778;17.806;2023-01-25T16:33:44;77.22;;;43.47;;
47167;SDS011;32931;47.778;17.806;2023-01-25T16:38:39;85.55;;;46.10;;
47167;SDS011;32931;47.778;17.806;2023-01-25T16:41:06;84.45;;;45.42;;
47167;SDS011;32931;47.778;17.806;2023-01-25T16:43:32;82.80;;;44.53;;
47167;SDS011;32931;47.778;17.806;2023-01-25T16:45:58;84.57;;;45.80;;
47167;SDS011;32931;47.778;17.806;2023-01-25T16:48:24;83.05;;;45.63;;
47167;SDS011;32931;47.778;17.806;2023-01-25T16:50:51;80.90;;;44.83;;
47167;SDS011;32931;47.778;17.806;2023-01-25T16:53:17;80.32;;;43.10;;
47167;SDS011;32931;47.778;17.806;2023-01-25T16:55:43;87.47;;;47.42;;
47167;SDS011;32931;47.778;17.806;2023-01-25T16:58:09;91.50;;;47.13;;
47167;SDS011;32931;47.778;17.806;2023-01-25T17:00:35;88.65;;;46.58;;